sensor_id;sensor_type;location;lat;lon;timestamp;P1;durP1;ratioP1;P2;durP2;ratioP2
22240;SDS011;11289;52.524;13.694;2023-07-29T00:00:42;9.07;;;6.93;;
22240;SDS011;11289;52.524;13.694;2023-07-29T00:03:09;6.35;;;5.75;;
22240;SDS011;11289;52.524;13.694;2023-07-29T00:05:36;7.45;;;5.15;;
22240;SDS011;11289;52.524;13.694;2023-07-29T00:08:02;9.48;;;5.85;;
22240;SDS011;11289;52.524;13.694;2023-07-29T00:10:30;6.47;;;5.88;;
22240;SDS011;11289;52.524;13.694;2023-07-29T00:12:57;8.85;;;5.53;;
22240;SDS011;11289;52.524;13.694;2023-07-29T00:15:24;11.30;;;5.90;;
22240;SDS011;11289;52.524;13.694;2023-07-29T00:17:50;6.50;;;5.63;;
22240;SDS011;11289;52.524;13.694;2023-07-29T00:20:16;6.63;;;5.57;;
22240;SDS011;11289;52.524;13.694;2023-07-29T00:22:42;6.05;;;5.45;;
22240;SDS011;11289;52.524;13.694;2023-07-29T00:25:08;5.97;;;5.38;;
22240;SDS011;11289;52.524;13.694;2023-07-29T00:27:34;5.57;;;5.05;;
22240;SDS011;11289;52.524;13.694;2023-07-29T00:30:00;5.13;;;4.43;;
22240;SDS011;11289;52.524;13.694;2023-07-29T00:32:27;5.95;;;5.28;;
22240;SDS011;11289;52.524;13.694;2023-07-29T00:34:54;8.90;;;4.75;;
22240;SDS011;11289;52.524;13.694;2023-07-29T00:37:20;8.80;;;5.35;;
22240;SDS011;11289;52.524;13.694;2023-07-29T00:39:47;6.18;;;5.55;;
22240;SDS011;11289;52.524;13.694;2023-07-29T00:42:13;7.07;;;5.35;;
22240;SDS011;11289;52.524;13.694;2023-07-29T00:44:39;7.93;;;5.15;;
22240;SDS011;11289;52.524;13.694;2023-07-29T00:47:05;7.07;;;5.38;;
22240;SDS011;11289;52.524;13.694;2023-07-29T00:49:32;5.93;;;5.25;;
22240;SDS011;11289;52.524;13.694;2023-07-29T00:51:58;9.50;;;5.78;;
22240;SDS011;11289;52.524;13.694;2023-07-29T00:54:25;7.18;;;5.88;;
22240;SDS011;11289;52.524;13.694;2023-07-29T00:56:51;7.88;;;5.68;;
22240;SDS011;11289;52.524;13.694;2023-07-29T00:59:17;10.57;;;6.60;;
22240;SDS011;11289;52.524;13.694;2023-07-29T01:01:43;13.82;;;7.40;;
22240;SDS011;11289;52.524;13.694;2023-07-29T01:04:09;10.63;;;6.47;;
22240;SDS011;11289;52.524;13.694;2023-07-29T01:06:44;11.15;;;6.88;;
22240;SDS011;11289;52.524;13.694;2023-07-29T01:15:12;10.27;;;6.88;;
22240;SDS011;11289;52.524;13.694;2023-07-29T01:17:21;9.38;;;7.72;;
22240;SDS011;11289;52.524;13.694;2023-07-29T01:20:06;8.68;;;7.22;;
22240;SDS011;11289;52.524;13.694;2023-07-29T01:22:34;11.98;;;7.40;;
22240;SDS011;11289;52.524;13.694;2023-07-29T01:25:01;9.25;;;7.95;;
22240;SDS011;11289;52.524;13.694;2023-07-29T01:27:27;11.88;;;8.43;;
22240;SDS011;11289;52.524;13.694;2023-07-29T01:29:54;12.30;;;7.88;;
22240;SDS011;11289;52.524;13.694;2023-07-29T01:35:23;11.88;;;7.47;;
22240;SDS011;11289;52.524;13.694;2023-07-29T01:38:02;8.35;;;6.75;;
22240;SDS011;11289;52.524;13.694;2023-07-29T01:40:32;10.60;;;7.38;;
22240;SDS011;11289;52.524;13.694;2023-07-29T01:42:59;10.52;;;6.93;;
22240;SDS011;11289;52.524;13.694;2023-07-29T01:45:25;8.40;;;6.90;;
22240;SDS011;11289;52.524;13.694;2023-07-29T01:47:51;8.63;;;6.63;;
22240;SDS011;11289;52.524;13.694;2023-07-29T01:50:17;7.55;;;6.05;;
22240;SDS011;11289;52.524;13.694;2023-07-29T01:52:43;7.90;;;5.68;;
22240;SDS011;11289;52.524;13.694;2023-07-29T01:55:09;7.13;;;6.22;;
22240;SDS011;11289;52.524;13.694;2023-07-29T01:57:35;9.68;;;6.32;;
22240;SDS011;11289;52.524;13.694;2023-07-29T02:00:01;7.30;;;6.10;;
22240;SDS011;11289;52.524;13.694;2023-07-29T02:02:29;10.02;;;6.35;;
22240;SDS011;11289;52.524;13.694;2023-07-29T02:04:55;9.15;;;6.70;;
22240;SDS011;11289;52.524;13.694;2023-07-29T02:07:21;10.48;;;7.18;;
22240;SDS011;11289;52.524;13.694;2023-07-29T02:09:47;8.13;;;6.90;;
22240;SDS011;11289;52.524;13.694;2023-07-29T02:12:13;7.93;;;6.60;;
22240;SDS011;11289;52.524;13.694;2023-07-29T02:14:39;8.73;;;6.43;;
22240;SDS011;11289;52.524;13.694;2023-07-29T02:17:05;6.93;;;5.72;;
22240;SDS011;11289;52.524;13.694;2023-07-29T02:19:31;8.63;;;6.30;;
22240;SDS011;11289;52.524;13.694;2023-07-29T02:21:57;7.30;;;5.80;;
22240;SDS011;11289;52.524;13.694;2023-07-29T02:24:23;7.20;;;5.10;;
22240;SDS011;11289;52.524;13.694;2023-07-29T02:26:49;6.88;;;5.68;;
22240;SDS011;11289;52.524;13.694;2023-07-29T02:29:15;6.28;;;5.22;;
22240;SDS011;11289;52.524;13.694;2023-07-29T02:31:41;6.93;;;5.65;;
22240;SDS011;11289;52.524;13.694;2023-07-29T02:34:07;9.35;;;5.90;;
22240;SDS011;11289;52.524;13.694;2023-07-29T02:36:33;8.85;;;5.57;;
22240;SDS011;11289;52.524;13.694;2023-07-29T02:38:59;9.90;;;5.93;;
22240;SDS011;11289;52.524;13.694;2023-07-29T02:41:25;8.60;;;5.70;;
22240;SDS011;11289;52.524;13.694;2023-07-29T02:43:51;7.60;;;6.20;;
22240;SDS011;11289;52.524;13.694;2023-07-29T02:46:17;6.32;;;5.45;;
22240;SDS011;11289;52.524;13.694;2023-07-29T02:48:44;6.45;;;5.30;;
22240;SDS011;11289;52.524;13.694;2023-07-29T02:51:10;6.63;;;5.53;;
22240;SDS011;11289;52.524;13.694;2023-07-29T02:53:36;7.45;;;6.10;;
22240;SDS011;11289;52.524;13.694;2023-07-29T02:56:03;10.73;;;5.72;;
22240;SDS011;11289;52.524;13.694;2023-07-29T02:58:29;6.78;;;6.10;;
22240;SDS011;11289;52.524;13.694;2023-07-29T03:01:01;8.32;;;5.93;;
22240;SDS011;11289;52.524;13.694;2023-07-29T03:03:28;6.97;;;5.68;;
22240;SDS011;11289;52.524;13.694;2023-07-29T03:06:05;7.90;;;6.15;;
22240;SDS011;11289;52.524;13.694;2023-07-29T03:08:35;7.63;;;6.38;;
22240;SDS011;11289;52.524;13.694;2023-07-29T03:11:09;8.45;;;6.95;;
22240;SDS011;11289;52.524;13.694;2023-07-29T03:13:36;7.57;;;5.75;;
22240;SDS011;11289;52.524;13.694;2023-07-29T03:18:32;8.75;;;6.20;;
22240;SDS011;11289;52.524;13.694;2023-07-29T03:20:59;7.05;;;6.35;;
22240;SDS011;11289;52.524;13.694;2023-07-29T03:23:25;9.13;;;6.63;;
22240;SDS011;11289;52.524;13.694;2023-07-29T03:25:51;9.88;;;6.38;;
22240;SDS011;11289;52.524;13.694;2023-07-29T03:28:18;8.77;;;6.38;;
22240;SDS011;11289;52.524;13.694;2023-07-29T03:30:44;7.03;;;6.13;;
22240;SDS011;11289;52.524;13.694;2023-07-29T03:33:10;7.13;;;6.15;;
22240;SDS011;11289;52.524;13.694;2023-07-29T03:35:36;7.30;;;6.10;;
22240;SDS011;11289;52.524;13.694;2023-07-29T03:38:02;7.03;;;5.70;;
22240;SDS011;11289;52.524;13.694;2023-07-29T03:40:28;6.95;;;6.25;;
22240;SDS011;11289;52.524;13.694;2023-07-29T03:42:54;6.80;;;5.68;;
22240;SDS011;11289;52.524;13.694;2023-07-29T03:45:20;6.97;;;6.22;;
22240;SDS011;11289;52.524;13.694;2023-07-29T03:47:46;8.02;;;5.45;;
22240;SDS011;11289;52.524;13.694;2023-07-29T03:50:12;7.20;;;6.50;;
22240;SDS011;11289;52.524;13.694;2023-07-29T03:52:38;6.38;;;5.50;;
22240;SDS011;11289;52.524;13.694;2023-07-29T03:55:04;7.60;;;5.97;;
22240;SDS011;11289;52.524;13.694;2023-07-29T03:57:30;9.23;;;6.25;;
22240;SDS011;11289;52.524;13.694;2023-07-29T03:59:56;8.57;;;5.57;;
22240;SDS011;11289;52.524;13.694;2023-07-29T04:02:22;7.95;;;6.05;;
22240;SDS011;11289;52.524;13.694;2023-07-29T04:04:48;9.52;;;6.13;;
22240;SDS011;11289;52.524;13.694;2023-07-29T04:07:14;6.57;;;5.47;;
22240;SDS011;11289;52.524;13.694;2023-07-29T04:09:40;7.72;;;5.55;;
22240;SDS011;11289;52.524;13.694;2023-07-29T04:12:06;7.70;;;5.82;;
22240;SDS011;11289;52.524;13.694;2023-07-29T04:14:33;7.28;;;6.18;;
22240;SDS011;11289;52.524;13.694;2023-07-29T04:16:59;12.00;;;6.50;;
22240;SDS011;11289;52.524;13.694;2023-07-29T04:19:25;6.63;;;5.47;;
22240;SDS011;11289;52.524;13.694;2023-07-29T04:21:51;7.20;;;5.70;;
22240;SDS011;11289;52.524;13.694;2023-07-29T04:24:17;9.15;;;5.82;;
22240;SDS011;11289;52.524;13.694;2023-07-29T04:26:43;8.85;;;6.50;;
22240;SDS011;11289;52.524;13.694;2023-07-29T04:29:09;7.10;;;5.57;;
22240;SDS011;11289;52.524;13.694;2023-07-29T04:31:35;8.32;;;6.68;;
22240;SDS011;11289;52.524;13.694;2023-07-29T04:34:01;7.97;;;7.18;;
22240;SDS011;11289;52.524;13.694;2023-07-29T04:36:28;11.30;;;6.95;;
22240;SDS011;11289;52.524;13.694;2023-07-29T04:38:54;9.57;;;6.82;;
22240;SDS011;11289;52.524;13.694;2023-07-29T04:41:19;8.55;;;7.13;;
22240;SDS011;11289;52.524;13.694;2023-07-29T04:43:45;8.10;;;7.00;;
22240;SDS011;11289;52.524;13.694;2023-07-29T04:46:12;8.80;;;7.80;;
22240;SDS011;11289;52.524;13.694;2023-07-29T04:48:38;8.80;;;7.60;;
22240;SDS011;11289;52.524;13.694;2023-07-29T04:51:04;9.15;;;7.72;;
22240;SDS011;11289;52.524;13.694;2023-07-29T04:53:29;9.40;;;8.45;;
22240;SDS011;11289;52.524;13.694;2023-07-29T04:55:55;10.30;;;9.20;;
22240;SDS011;11289;52.524;13.694;2023-07-29T04:58:22;12.88;;;9.48;;
22240;SDS011;11289;52.524;13.694;2023-07-29T05:00:48;11.15;;;9.95;;
22240;SDS011;11289;52.524;13.694;2023-07-29T05:03:13;10.30;;;9.13;;
22240;SDS011;11289;52.524;13.694;2023-07-29T05:05:40;10.35;;;9.13;;
22240;SDS011;11289;52.524;13.694;2023-07-29T05:08:06;21.33;;;19.02;;
22240;SDS011;11289;52.524;13.694;2023-07-29T05:10:31;14.25;;;11.60;;
22240;SDS011;11289;52.524;13.694;2023-07-29T05:12:57;11.82;;;10.45;;
22240;SDS011;11289;52.524;13.694;2023-07-29T05:15:24;10.00;;;8.80;;
22240;SDS011;11289;52.524;13.694;2023-07-29T05:17:49;12.27;;;9.55;;
22240;SDS011;11289;52.524;13.694;2023-07-29T05:20:16;9.63;;;8.63;;
22240;SDS011;11289;52.524;13.694;2023-07-29T05:22:42;10.30;;;9.07;;
22240;SDS011;11289;52.524;13.694;2023-07-29T05:25:08;12.75;;;9.15;;
22240;SDS011;11289;52.524;13.694;2023-07-29T05:27:34;13.05;;;8.73;;
22240;SDS011;11289;52.524;13.694;2023-07-29T05:30:00;12.20;;;9.68;;
22240;SDS011;11289;52.524;13.694;2023-07-29T05:32:26;24.08;;;19.67;;
22240;SDS011;11289;52.524;13.694;2023-07-29T05:34:52;12.32;;;10.70;;
22240;SDS011;11289;52.524;13.694;2023-07-29T05:37:18;10.88;;;9.68;;
22240;SDS011;11289;52.524;13.694;2023-07-29T05:39:44;11.95;;;8.65;;
22240;SDS011;11289;52.524;13.694;2023-07-29T05:42:10;11.05;;;9.85;;
22240;SDS011;11289;52.524;13.694;2023-07-29T05:44:36;10.88;;;9.40;;
22240;SDS011;11289;52.524;13.694;2023-07-29T05:47:02;12.02;;;9.90;;
22240;SDS011;11289;52.524;13.694;2023-07-29T05:49:28;11.27;;;8.73;;
22240;SDS011;11289;52.524;13.694;2023-07-29T05:51:54;10.70;;;8.55;;
22240;SDS011;11289;52.524;13.694;2023-07-29T05:54:20;12.32;;;9.40;;
22240;SDS011;11289;52.524;13.694;2023-07-29T05:56:46;10.55;;;8.80;;
22240;SDS011;11289;52.524;13.694;2023-07-29T05:59:12;12.18;;;9.05;;
22240;SDS011;11289;52.524;13.694;2023-07-29T06:01:38;10.55;;;8.90;;
22240;SDS011;11289;52.524;13.694;2023-07-29T06:04:04;9.55;;;8.55;;
22240;SDS011;11289;52.524;13.694;2023-07-29T06:06:30;9.40;;;8.25;;
22240;SDS011;11289;52.524;13.694;2023-07-29T06:08:56;10.40;;;7.75;;
22240;SDS011;11289;52.524;13.694;2023-07-29T06:11:23;10.38;;;8.15;;
22240;SDS011;11289;52.524;13.694;2023-07-29T06:13:49;9.52;;;7.97;;
22240;SDS011;11289;52.524;13.694;2023-07-29T06:16:15;10.65;;;7.72;;
22240;SDS011;11289;52.524;13.694;2023-07-29T06:18:41;7.97;;;7.18;;
22240;SDS011;11289;52.524;13.694;2023-07-29T06:21:07;8.02;;;7.18;;
22240;SDS011;11289;52.524;13.694;2023-07-29T06:23:33;8.18;;;7.38;;
22240;SDS011;11289;52.524;13.694;2023-07-29T06:25:59;8.52;;;7.57;;
22240;SDS011;11289;52.524;13.694;2023-07-29T06:28:28;8.73;;;7.43;;
22240;SDS011;11289;52.524;13.694;2023-07-29T06:30:54;8.82;;;7.45;;
22240;SDS011;11289;52.524;13.694;2023-07-29T06:33:20;9.98;;;7.10;;
22240;SDS011;11289;52.524;13.694;2023-07-29T06:35:46;8.63;;;7.10;;
22240;SDS011;11289;52.524;13.694;2023-07-29T06:38:12;6.95;;;6.18;;
22240;SDS011;11289;52.524;13.694;2023-07-29T06:40:38;7.40;;;6.22;;
22240;SDS011;11289;52.524;13.694;2023-07-29T06:43:04;7.50;;;6.40;;
22240;SDS011;11289;52.524;13.694;2023-07-29T06:45:30;6.28;;;5.60;;
22240;SDS011;11289;52.524;13.694;2023-07-29T06:47:56;6.03;;;5.43;;
22240;SDS011;11289;52.524;13.694;2023-07-29T06:50:22;9.70;;;5.63;;
22240;SDS011;11289;52.524;13.694;2023-07-29T06:52:48;6.03;;;5.18;;
22240;SDS011;11289;52.524;13.694;2023-07-29T06:55:14;7.97;;;5.50;;
22240;SDS011;11289;52.524;13.694;2023-07-29T06:57:40;6.60;;;4.38;;
22240;SDS011;11289;52.524;13.694;2023-07-29T07:00:06;6.20;;;5.60;;
22240;SDS011;11289;52.524;13.694;2023-07-29T07:02:34;5.97;;;5.35;;
22240;SDS011;11289;52.524;13.694;2023-07-29T07:05:00;7.35;;;5.30;;
22240;SDS011;11289;52.524;13.694;2023-07-29T07:07:26;7.47;;;4.97;;
22240;SDS011;11289;52.524;13.694;2023-07-29T07:09:52;5.15;;;4.70;;
22240;SDS011;11289;52.524;13.694;2023-07-29T07:12:19;6.90;;;4.57;;
22240;SDS011;11289;52.524;13.694;2023-07-29T07:14:45;5.22;;;4.72;;
22240;SDS011;11289;52.524;13.694;2023-07-29T07:17:11;5.65;;;4.28;;
22240;SDS011;11289;52.524;13.694;2023-07-29T07:19:37;10.32;;;4.13;;
22240;SDS011;11289;52.524;13.694;2023-07-29T07:22:03;6.38;;;3.40;;
22240;SDS011;11289;52.524;13.694;2023-07-29T07:24:29;4.00;;;3.60;;
22240;SDS011;11289;52.524;13.694;2023-07-29T07:26:55;6.25;;;4.43;;
22240;SDS011;11289;52.524;13.694;2023-07-29T07:29:21;4.50;;;4.03;;
22240;SDS011;11289;52.524;13.694;2023-07-29T07:31:51;4.20;;;3.80;;
22240;SDS011;11289;52.524;13.694;2023-07-29T07:34:19;4.45;;;3.65;;
22240;SDS011;11289;52.524;13.694;2023-07-29T07:36:45;3.92;;;3.55;;
22240;SDS011;11289;52.524;13.694;2023-07-29T07:39:12;4.85;;;3.40;;
22240;SDS011;11289;52.524;13.694;2023-07-29T07:41:38;4.07;;;3.22;;
22240;SDS011;11289;52.524;13.694;2023-07-29T07:44:04;3.80;;;3.35;;
22240;SDS011;11289;52.524;13.694;2023-07-29T07:46:30;4.45;;;3.35;;
22240;SDS011;11289;52.524;13.694;2023-07-29T07:48:56;5.38;;;3.28;;
22240;SDS011;11289;52.524;13.694;2023-07-29T07:51:22;7.72;;;3.38;;
22240;SDS011;11289;52.524;13.694;2023-07-29T07:53:48;4.15;;;3.35;;
22240;SDS011;11289;52.524;13.694;2023-07-29T07:56:14;4.55;;;3.78;;
22240;SDS011;11289;52.524;13.694;2023-07-29T07:58:40;7.43;;;3.80;;
22240;SDS011;11289;52.524;13.694;2023-07-29T08:01:07;5.95;;;3.40;;
22240;SDS011;11289;52.524;13.694;2023-07-29T08:03:34;4.78;;;3.33;;
22240;SDS011;11289;52.524;13.694;2023-07-29T08:06:01;5.63;;;4.30;;
22240;SDS011;11289;52.524;13.694;2023-07-29T08:08:27;4.57;;;4.18;;
22240;SDS011;11289;52.524;13.694;2023-07-29T08:10:54;4.47;;;3.50;;
22240;SDS011;11289;52.524;13.694;2023-07-29T08:13:22;3.97;;;3.60;;
22240;SDS011;11289;52.524;13.694;2023-07-29T08:15:48;4.55;;;4.15;;
22240;SDS011;11289;52.524;13.694;2023-07-29T08:18:16;4.90;;;3.35;;
22240;SDS011;11289;52.524;13.694;2023-07-29T08:20:52;4.90;;;4.10;;
22240;SDS011;11289;52.524;13.694;2023-07-29T08:23:26;4.38;;;3.53;;
22240;SDS011;11289;52.524;13.694;2023-07-29T08:25:53;4.00;;;3.60;;
22240;SDS011;11289;52.524;13.694;2023-07-29T08:28:22;6.75;;;3.70;;
22240;SDS011;11289;52.524;13.694;2023-07-29T08:30:48;5.18;;;4.22;;
22240;SDS011;11289;52.524;13.694;2023-07-29T08:33:14;3.90;;;3.30;;
22240;SDS011;11289;52.524;13.694;2023-07-29T08:35:40;5.03;;;3.20;;
22240;SDS011;11289;52.524;13.694;2023-07-29T08:38:06;5.72;;;3.45;;
22240;SDS011;11289;52.524;13.694;2023-07-29T08:40:34;4.25;;;3.50;;
22240;SDS011;11289;52.524;13.694;2023-07-29T08:43:04;4.10;;;3.65;;
22240;SDS011;11289;52.524;13.694;2023-07-29T08:45:33;4.20;;;3.80;;
22240;SDS011;11289;52.524;13.694;2023-07-29T08:48:00;4.38;;;3.42;;
22240;SDS011;11289;52.524;13.694;2023-07-29T08:50:32;4.22;;;3.78;;
22240;SDS011;11289;52.524;13.694;2023-07-29T08:52:59;4.43;;;3.50;;
22240;SDS011;11289;52.524;13.694;2023-07-29T08:55:26;7.88;;;3.10;;
22240;SDS011;11289;52.524;13.694;2023-07-29T08:57:52;3.83;;;3.53;;
22240;SDS011;11289;52.524;13.694;2023-07-29T09:00:19;5.35;;;3.50;;
22240;SDS011;11289;52.524;13.694;2023-07-29T09:02:46;3.55;;;3.22;;
22240;SDS011;11289;52.524;13.694;2023-07-29T09:05:12;4.03;;;3.13;;
22240;SDS011;11289;52.524;13.694;2023-07-29T09:07:38;3.42;;;3.13;;
22240;SDS011;11289;52.524;13.694;2023-07-29T09:10:05;6.15;;;3.90;;
22240;SDS011;11289;52.524;13.694;2023-07-29T09:12:34;3.40;;;3.10;;
22240;SDS011;11289;52.524;13.694;2023-07-29T09:15:00;4.25;;;3.35;;
22240;SDS011;11289;52.524;13.694;2023-07-29T09:17:26;4.82;;;3.20;;
22240;SDS011;11289;52.524;13.694;2023-07-29T09:19:52;3.90;;;3.58;;
22240;SDS011;11289;52.524;13.694;2023-07-29T09:22:18;7.07;;;3.65;;
22240;SDS011;11289;52.524;13.694;2023-07-29T09:24:45;3.33;;;3.03;;
22240;SDS011;11289;52.524;13.694;2023-07-29T09:27:46;4.30;;;3.28;;
22240;SDS011;11289;52.524;13.694;2023-07-29T09:30:05;3.67;;;3.15;;
22240;SDS011;11289;52.524;13.694;2023-07-29T09:32:32;5.85;;;3.42;;
22240;SDS011;11289;52.524;13.694;2023-07-29T09:34:57;4.45;;;2.90;;
22240;SDS011;11289;52.524;13.694;2023-07-29T09:37:23;3.72;;;3.20;;
22240;SDS011;11289;52.524;13.694;2023-07-29T09:39:50;4.72;;;3.22;;
22240;SDS011;11289;52.524;13.694;2023-07-29T09:42:19;3.67;;;3.10;;
22240;SDS011;11289;52.524;13.694;2023-07-29T09:44:48;2.65;;;2.45;;
22240;SDS011;11289;52.524;13.694;2023-07-29T09:47:22;2.60;;;2.40;;
22240;SDS011;11289;52.524;13.694;2023-07-29T09:49:49;4.03;;;2.58;;
22240;SDS011;11289;52.524;13.694;2023-07-29T09:52:16;2.80;;;2.40;;
22240;SDS011;11289;52.524;13.694;2023-07-29T09:54:43;3.95;;;2.63;;
22240;SDS011;11289;52.524;13.694;2023-07-29T09:57:11;5.60;;;3.10;;
22240;SDS011;11289;52.524;13.694;2023-07-29T09:59:39;2.83;;;2.47;;
22240;SDS011;11289;52.524;13.694;2023-07-29T10:02:06;3.05;;;2.75;;
22240;SDS011;11289;52.524;13.694;2023-07-29T10:04:39;2.60;;;2.40;;
22240;SDS011;11289;52.524;13.694;2023-07-29T10:07:06;4.18;;;2.30;;
22240;SDS011;11289;52.524;13.694;2023-07-29T10:09:33;3.47;;;2.30;;
22240;SDS011;11289;52.524;13.694;2023-07-29T10:11:59;4.55;;;3.15;;
22240;SDS011;11289;52.524;13.694;2023-07-29T10:14:27;3.13;;;2.58;;
22240;SDS011;11289;52.524;13.694;2023-07-29T10:16:53;2.70;;;2.40;;
22240;SDS011;11289;52.524;13.694;2023-07-29T10:19:20;3.53;;;1.92;;
22240;SDS011;11289;52.524;13.694;2023-07-29T10:21:48;4.43;;;2.08;;
22240;SDS011;11289;52.524;13.694;2023-07-29T10:24:16;3.42;;;2.15;;
22240;SDS011;11289;52.524;13.694;2023-07-29T10:26:47;2.60;;;2.40;;
22240;SDS011;11289;52.524;13.694;2023-07-29T10:29:17;4.15;;;2.25;;
22240;SDS011;11289;52.524;13.694;2023-07-29T10:31:46;2.78;;;2.42;;
22240;SDS011;11289;52.524;13.694;2023-07-29T10:34:13;4.35;;;2.28;;
22240;SDS011;11289;52.524;13.694;2023-07-29T10:36:40;3.20;;;1.95;;
22240;SDS011;11289;52.524;13.694;2023-07-29T10:39:07;3.08;;;2.15;;
22240;SDS011;11289;52.524;13.694;2023-07-29T10:47:12;2.72;;;1.90;;
22240;SDS011;11289;52.524;13.694;2023-07-29T10:49:45;2.03;;;1.83;;
22240;SDS011;11289;52.524;13.694;2023-07-29T10:52:13;1.90;;;1.70;;
22240;SDS011;11289;52.524;13.694;2023-07-29T10:54:46;2.88;;;1.98;;
22240;SDS011;11289;52.524;13.694;2023-07-29T10:57:13;1.92;;;1.52;;
22240;SDS011;11289;52.524;13.694;2023-07-29T10:59:56;1.55;;;1.45;;
22240;SDS011;11289;52.524;13.694;2023-07-29T11:02:28;2.22;;;1.77;;
22240;SDS011;11289;52.524;13.694;2023-07-29T11:07:22;3.67;;;1.40;;
22240;SDS011;11289;52.524;13.694;2023-07-29T11:09:56;1.98;;;1.52;;
22240;SDS011;11289;52.524;13.694;2023-07-29T11:17:41;2.15;;;1.65;;
22240;SDS011;11289;52.524;13.694;2023-07-29T11:20:08;2.85;;;1.40;;
22240;SDS011;11289;52.524;13.694;2023-07-29T11:22:35;1.70;;;1.50;;
22240;SDS011;11289;52.524;13.694;2023-07-29T11:25:02;1.40;;;1.30;;
22240;SDS011;11289;52.524;13.694;2023-07-29T11:27:31;1.65;;;1.30;;
22240;SDS011;11289;52.524;13.694;2023-07-29T11:29:59;4.47;;;1.45;;
22240;SDS011;11289;52.524;13.694;2023-07-29T11:32:27;1.77;;;1.30;;
22240;SDS011;11289;52.524;13.694;2023-07-29T11:34:53;1.67;;;1.33;;
22240;SDS011;11289;52.524;13.694;2023-07-29T11:37:19;1.10;;;1.00;;
22240;SDS011;11289;52.524;13.694;2023-07-29T11:39:47;1.67;;;1.40;;
22240;SDS011;11289;52.524;13.694;2023-07-29T11:42:16;1.55;;;1.08;;
22240;SDS011;11289;52.524;13.694;2023-07-29T11:44:42;3.97;;;1.88;;
22240;SDS011;11289;52.524;13.694;2023-07-29T11:47:09;1.50;;;1.30;;
22240;SDS011;11289;52.524;13.694;2023-07-29T11:49:37;1.63;;;1.13;;
22240;SDS011;11289;52.524;13.694;2023-07-29T11:52:05;2.28;;;1.10;;
22240;SDS011;11289;52.524;13.694;2023-07-29T11:54:37;2.72;;;0.80;;
22240;SDS011;11289;52.524;13.694;2023-07-29T12:00:54;3.55;;;1.52;;
22240;SDS011;11289;52.524;13.694;2023-07-29T12:03:21;5.28;;;1.73;;
22240;SDS011;11289;52.524;13.694;2023-07-29T12:05:51;2.22;;;1.52;;
22240;SDS011;11289;52.524;13.694;2023-07-29T12:08:18;7.25;;;1.42;;
22240;SDS011;11289;52.524;13.694;2023-07-29T12:10:44;6.47;;;1.50;;
22240;SDS011;11289;52.524;13.694;2023-07-29T12:16:08;5.32;;;1.83;;
22240;SDS011;11289;52.524;13.694;2023-07-29T12:18:34;3.80;;;1.40;;
22240;SDS011;11289;52.524;13.694;2023-07-29T12:21:01;2.75;;;1.45;;
22240;SDS011;11289;52.524;13.694;2023-07-29T12:23:28;2.28;;;1.50;;
22240;SDS011;11289;52.524;13.694;2023-07-29T12:25:59;3.53;;;1.60;;
22240;SDS011;11289;52.524;13.694;2023-07-29T12:28:25;3.65;;;1.30;;
22240;SDS011;11289;52.524;13.694;2023-07-29T12:30:55;4.53;;;1.40;;
22240;SDS011;11289;52.524;13.694;2023-07-29T12:33:35;2.92;;;1.40;;
22240;SDS011;11289;52.524;13.694;2023-07-29T12:36:06;5.60;;;1.27;;
22240;SDS011;11289;52.524;13.694;2023-07-29T12:38:32;6.45;;;1.42;;
22240;SDS011;11289;52.524;13.694;2023-07-29T12:40:58;3.92;;;1.05;;
22240;SDS011;11289;52.524;13.694;2023-07-29T12:43:24;1.80;;;1.05;;
22240;SDS011;11289;52.524;13.694;2023-07-29T12:45:51;3.35;;;1.05;;
22240;SDS011;11289;52.524;13.694;2023-07-29T12:48:20;1.65;;;0.63;;
22240;SDS011;11289;52.524;13.694;2023-07-29T12:50:52;2.28;;;0.85;;
22240;SDS011;11289;52.524;13.694;2023-07-29T12:53:18;2.85;;;0.85;;
22240;SDS011;11289;52.524;13.694;2023-07-29T12:55:45;1.92;;;1.10;;
22240;SDS011;11289;52.524;13.694;2023-07-29T12:58:11;3.35;;;1.02;;
22240;SDS011;11289;52.524;13.694;2023-07-29T13:00:37;2.13;;;1.08;;
22240;SDS011;11289;52.524;13.694;2023-07-29T13:03:04;2.97;;;1.27;;
22240;SDS011;11289;52.524;13.694;2023-07-29T13:05:31;1.83;;;1.10;;
22240;SDS011;11289;52.524;13.694;2023-07-29T13:07:57;1.85;;;1.17;;
22240;SDS011;11289;52.524;13.694;2023-07-29T13:10:23;1.02;;;0.73;;
22240;SDS011;11289;52.524;13.694;2023-07-29T13:12:50;2.22;;;1.10;;
22240;SDS011;11289;52.524;13.694;2023-07-29T13:15:16;1.77;;;1.00;;
22240;SDS011;11289;52.524;13.694;2023-07-29T13:17:42;1.33;;;0.90;;
22240;SDS011;11289;52.524;13.694;2023-07-29T13:20:08;2.92;;;1.48;;
22240;SDS011;11289;52.524;13.694;2023-07-29T13:22:34;1.80;;;1.33;;
22240;SDS011;11289;52.524;13.694;2023-07-29T13:25:01;2.30;;;1.27;;
22240;SDS011;11289;52.524;13.694;2023-07-29T13:27:27;4.28;;;1.40;;
22240;SDS011;11289;52.524;13.694;2023-07-29T13:29:56;3.20;;;1.30;;
22240;SDS011;11289;52.524;13.694;2023-07-29T13:32:22;1.85;;;0.95;;
22240;SDS011;11289;52.524;13.694;2023-07-29T13:34:51;3.88;;;1.25;;
22240;SDS011;11289;52.524;13.694;2023-07-29T13:37:17;3.70;;;1.58;;
22240;SDS011;11289;52.524;13.694;2023-07-29T13:39:45;2.35;;;1.77;;
22240;SDS011;11289;52.524;13.694;2023-07-29T13:42:20;3.80;;;1.45;;
22240;SDS011;11289;52.524;13.694;2023-07-29T13:44:46;2.72;;;1.40;;
22240;SDS011;11289;52.524;13.694;2023-07-29T13:47:12;3.30;;;1.33;;
22240;SDS011;11289;52.524;13.694;2023-07-29T13:49:41;2.25;;;1.42;;
22240;SDS011;11289;52.524;13.694;2023-07-29T13:52:07;2.95;;;1.63;;
22240;SDS011;11289;52.524;13.694;2023-07-29T13:54:33;5.50;;;2.05;;
22240;SDS011;11289;52.524;13.694;2023-07-29T13:56:59;3.78;;;1.45;;
22240;SDS011;11289;52.524;13.694;2023-07-29T13:59:25;3.08;;;1.45;;
22240;SDS011;11289;52.524;13.694;2023-07-29T14:01:51;2.97;;;1.83;;
22240;SDS011;11289;52.524;13.694;2023-07-29T14:04:19;4.10;;;1.95;;
22240;SDS011;11289;52.524;13.694;2023-07-29T14:06:45;2.75;;;2.20;;
22240;SDS011;11289;52.524;13.694;2023-07-29T14:09:11;2.53;;;1.83;;
22240;SDS011;11289;52.524;13.694;2023-07-29T14:11:37;4.35;;;2.00;;
22240;SDS011;11289;52.524;13.694;2023-07-29T14:14:04;2.75;;;1.73;;
22240;SDS011;11289;52.524;13.694;2023-07-29T14:16:30;2.30;;;2.00;;
22240;SDS011;11289;52.524;13.694;2023-07-29T14:18:56;2.08;;;1.55;;
22240;SDS011;11289;52.524;13.694;2023-07-29T14:21:22;3.38;;;1.88;;
22240;SDS011;11289;52.524;13.694;2023-07-29T14:23:48;1.92;;;1.60;;
22240;SDS011;11289;52.524;13.694;2023-07-29T14:26:14;2.67;;;1.40;;
22240;SDS011;11289;52.524;13.694;2023-07-29T14:28:41;2.67;;;1.75;;
22240;SDS011;11289;52.524;13.694;2023-07-29T14:31:39;2.90;;;1.60;;
22240;SDS011;11289;52.524;13.694;2023-07-29T14:34:05;3.38;;;1.63;;
22240;SDS011;11289;52.524;13.694;2023-07-29T14:36:44;2.70;;;1.35;;
22240;SDS011;11289;52.524;13.694;2023-07-29T14:39:10;2.08;;;1.40;;
22240;SDS011;11289;52.524;13.694;2023-07-29T14:41:37;1.60;;;1.45;;
22240;SDS011;11289;52.524;13.694;2023-07-29T14:44:03;2.17;;;1.63;;
22240;SDS011;11289;52.524;13.694;2023-07-29T14:46:31;2.42;;;1.65;;
22240;SDS011;11289;52.524;13.694;2023-07-29T14:48:58;6.68;;;2.13;;
22240;SDS011;11289;52.524;13.694;2023-07-29T14:51:24;4.07;;;2.47;;
22240;SDS011;11289;52.524;13.694;2023-07-29T14:53:50;6.13;;;4.38;;
22240;SDS011;11289;52.524;13.694;2023-07-29T14:56:16;2.95;;;2.38;;
22240;SDS011;11289;52.524;13.694;2023-07-29T14:58:43;2.28;;;1.80;;
22240;SDS011;11289;52.524;13.694;2023-07-29T15:01:10;3.00;;;1.48;;
22240;SDS011;11289;52.524;13.694;2023-07-29T15:03:36;2.22;;;1.85;;